This is the latest recevied weather packets stored in our database for station/object GBTWP-2. If no packets are shown the sender has not sent any weather packets the latest 10 day(s).
| Time | Temp. | Humidity | Pressure | Rain* | Wind** | Luminosity | Snow |
|---|---|---|---|---|---|---|---|
| 1778067901 | 5° C | 76% | 1013.8 hPa | 0 mm | - | 70 W/m² | - |
| 1778067603 | 5° C | 77% | 1013.5 hPa | 0 mm | - | 33 W/m² | - |
| 1778067302 | 5° C | 76% | 1013.6 hPa | 0 mm | - | 43 W/m² | - |
| 1778066402 | 3.89° C | 80% | 1013.5 hPa | 0 mm | - | 25 W/m² | - |
| 1778066101 | 3.89° C | 80% | 1013.1 hPa | 0 mm | - | 17 W/m² | - |
| 1778065802 | 3.89° C | 80% | 1013.3 hPa | 0 mm | - | 13 W/m² | - |
| 1778065202 | 3.33° C | 83% | 1013 hPa | 0 mm | - | 12 W/m² | - |
| 1778064302 | 3.33° C | 82% | 1012.5 hPa | 0 mm | - | 6 W/m² | - |
| 1778063102 | 3.89° C | 79% | 1012.3 hPa | 0 mm | - | 2 W/m² | - |
| 1778062801 | 3.89° C | 80% | 1012.5 hPa | 0 mm | - | 1 W/m² | - |
| 1778062502 | 4.44° C | 78% | 1012.3 hPa | 0 mm | - | 0 W/m² | - |
| 1778062202 | 4.44° C | 79% | 1012.3 hPa | 0 mm | - | 0 W/m² | - |
| 1778061902 | 4.44° C | 79% | 1012.2 hPa | 0 mm | - | 0 W/m² | - |
| 1778061602 | 5° C | 79% | 1011.9 hPa | 0 mm | - | 0 W/m² | - |
| 1778061303 | 5° C | 80% | 1012 hPa | 0 mm | - | 0 W/m² | - |
| 1778061002 | 5.56° C | 80% | 1011.8 hPa | 0 mm | - | 0 W/m² | - |
| 1778060701 | 5.56° C | 80% | 1011.8 hPa | 0 mm | - | 0 W/m² | - |
| 1778060102 | 5.56° C | 83% | 1011.9 hPa | 0 mm | - | 0 W/m² | - |
| 1778059802 | 5.56° C | 85% | 1011.7 hPa | 0 mm | - | 0 W/m² | - |
| 1778059501 | 6.11° C | 86% | 1011.8 hPa | 0 mm | - | 0 W/m² | - |
| 1778058901 | 6.11° C | 86% | 1011.8 hPa | 0 mm | - | 0 W/m² | - |
| 1778058602 | 5.56° C | 86% | 1011.6 hPa | 0 mm | - | 0 W/m² | - |
| 1778058302 | 6.11° C | 85% | 1011.8 hPa | 0 mm | - | 0 W/m² | - |
| 1778058002 | 6.11° C | 85% | 1011.7 hPa | 0 mm | - | 0 W/m² | - |
| 1778057406 | 5.56° C | 85% | 1011.7 hPa | 0 mm | - | 0 W/m² | - |
* Rain latest hour (hover to see other rain measurements)
** Current wind speed in m/s (hover to see current wind gust speed)